createdAt,value
2019-04-26T00:01:10.268Z,9.88
2019-04-26T00:03:40.598Z,10.10
2019-04-26T00:06:10.786Z,10.58
2019-04-26T00:08:39.975Z,10.15
2019-04-26T00:11:25.610Z,10.95
2019-04-26T00:14:14.212Z,10.98
2019-04-26T00:16:44.501Z,10.32
2019-04-26T00:19:13.865Z,10.60
2019-04-26T00:21:43.026Z,10.60
2019-04-26T00:24:13.116Z,11.68
2019-04-26T00:26:41.801Z,11.25
2019-04-26T00:29:11.386Z,10.70
2019-04-26T00:31:40.122Z,11.50
2019-04-26T00:34:16.170Z,11.35
2019-04-26T00:36:44.788Z,11.20
2019-04-26T00:39:14.339Z,12.43
2019-04-26T00:41:43.657Z,12.93
2019-04-26T00:44:13.784Z,11.70
2019-04-26T00:46:46.008Z,11.95
2019-04-26T00:49:17.050Z,11.95
2019-04-26T00:51:48.188Z,11.48
2019-04-26T00:54:18.249Z,10.88
2019-04-26T00:56:47.311Z,10.15
2019-04-26T00:59:17.016Z,11.28
2019-04-26T01:01:47.318Z,12.23
2019-04-26T01:04:17.046Z,11.48
2019-04-26T01:06:47.787Z,12.43
2019-04-26T01:09:17.370Z,14.38
2019-04-26T01:11:46.115Z,12.95
2019-04-26T01:14:15.541Z,13.15
2019-04-26T01:16:47.050Z,12.13
2019-04-26T01:19:18.489Z,12.20
2019-04-26T01:21:50.357Z,12.10
2019-04-26T01:24:21.186Z,10.53
2019-04-26T01:26:52.208Z,11.33
2019-04-26T01:29:23.784Z,11.33
2019-04-26T01:31:58.076Z,11.40
2019-04-26T01:34:28.271Z,10.85
2019-04-26T01:37:00.870Z,11.55
2019-04-26T01:39:29.686Z,11.30
2019-04-26T01:42:00.413Z,11.15
2019-04-26T01:44:33.635Z,10.90
2019-04-26T01:47:02.545Z,11.55
2019-04-26T01:49:32.494Z,10.82
2019-04-26T01:52:07.973Z,10.88
2019-04-26T01:54:42.468Z,11.40
2019-04-26T01:57:13.845Z,11.15
2019-04-26T01:59:46.829Z,12.15
2019-04-26T02:02:27.672Z,11.00
2019-04-26T02:04:59.093Z,12.15
2019-04-26T02:07:40.749Z,11.03
2019-04-26T02:10:15.166Z,10.25
2019-04-26T02:12:48.887Z,9.80
2019-04-26T02:15:19.310Z,12.00
2019-04-26T02:17:50.935Z,10.25
2019-04-26T02:20:45.250Z,11.08
2019-04-26T02:23:30.819Z,10.68
2019-04-26T02:26:01.130Z,11.25
2019-04-26T02:28:31.060Z,11.43
2019-04-26T02:31:00.201Z,10.28
2019-04-26T02:33:29.694Z,10.00
2019-04-26T02:35:59.535Z,10.82
2019-04-26T02:38:30.546Z,11.45
2019-04-26T02:40:59.222Z,12.10
2019-04-26T02:43:35.232Z,11.35
2019-04-26T02:46:13.392Z,12.25
2019-04-26T02:48:46.682Z,11.88
2019-04-26T02:51:18.304Z,11.15
2019-04-26T02:53:55.924Z,11.57
2019-04-26T02:56:39.361Z,11.80
2019-04-26T02:59:12.893Z,12.70
2019-04-26T03:01:42.447Z,11.68
2019-04-26T03:04:11.496Z,12.28
2019-04-26T03:06:43.061Z,12.13
2019-04-26T03:09:14.679Z,12.90
2019-04-26T03:11:46.238Z,12.40
2019-04-26T03:14:22.578Z,12.50
2019-04-26T03:16:58.455Z,11.93
2019-04-26T03:19:33.690Z,11.70
2019-04-26T03:22:13.776Z,11.43
2019-04-26T03:25:05.805Z,11.80
2019-04-26T03:27:45.941Z,12.65
2019-04-26T03:30:26.589Z,11.80
2019-04-26T03:33:13.438Z,11.28
2019-04-26T03:36:01.432Z,10.58
2019-04-26T03:38:52.681Z,10.57
2019-04-26T03:41:42.908Z,10.98
2019-04-26T03:44:21.913Z,10.95
2019-04-26T03:46:56.169Z,11.15
2019-04-26T03:49:49.997Z,11.88
2019-04-26T03:52:24.238Z,11.30
2019-04-26T03:54:55.872Z,11.48
2019-04-26T03:57:52.247Z,16.10
2019-04-26T04:00:41.325Z,18.10
2019-04-26T04:03:21.096Z,23.60
2019-04-26T04:05:54.278Z,27.00
2019-04-26T04:08:25.858Z,20.02
2019-04-26T04:10:57.883Z,13.90
2019-04-26T04:13:59.626Z,14.98
2019-04-26T04:16:46.876Z,11.70
2019-04-26T04:19:34.989Z,12.80
2019-04-26T04:22:09.053Z,13.38
2019-04-26T04:24:45.416Z,13.40
2019-04-26T04:27:31.868Z,12.45
2019-04-26T04:30:18.620Z,13.15
2019-04-26T04:32:53.259Z,13.45
2019-04-26T04:35:24.758Z,14.07
2019-04-26T04:38:09.453Z,14.50
2019-04-26T04:40:40.863Z,16.65
2019-04-26T04:43:32.446Z,15.48
2019-04-26T04:46:05.782Z,18.27
2019-04-26T04:49:06.064Z,19.62
2019-04-26T04:51:52.419Z,20.70
2019-04-26T04:54:43.252Z,20.05
2019-04-26T04:57:30.475Z,18.95
2019-04-26T05:00:06.331Z,18.55
2019-04-26T05:03:04.862Z,19.05
2019-04-26T05:05:51.083Z,18.75
2019-04-26T05:08:57.473Z,17.73
2019-04-26T05:11:35.080Z,18.40
2019-04-26T05:14:09.575Z,20.40
2019-04-26T05:17:08.391Z,22.05
2019-04-26T05:19:46.830Z,20.95
2019-04-26T05:22:24.601Z,18.45
2019-04-26T05:25:07.142Z,18.60
2019-04-26T05:27:55.229Z,19.48
2019-04-26T05:30:37.232Z,18.98
2019-04-26T05:33:11.612Z,20.23
2019-04-26T05:36:02.908Z,18.57
2019-04-26T05:38:55.582Z,18.05
2019-04-26T05:41:51.603Z,18.35
2019-04-26T05:44:42.873Z,18.30
2019-04-26T05:47:28.214Z,17.77
2019-04-26T05:50:22.386Z,20.60
2019-04-26T05:53:10.904Z,19.40
2019-04-26T05:55:46.987Z,18.85
2019-04-26T05:58:45.477Z,17.02
2019-04-26T06:01:47.098Z,16.45
2019-04-26T06:04:35.501Z,15.50
2019-04-26T06:07:11.316Z,14.85
2019-04-26T06:09:53.118Z,14.60
2019-04-26T06:12:32.750Z,15.70
2019-04-26T06:15:20.403Z,13.58
2019-04-26T06:17:57.278Z,14.87
2019-04-26T06:20:38.244Z,15.58
2019-04-26T06:23:32.742Z,13.50
2019-04-26T06:26:27.890Z,15.50
2019-04-26T06:29:17.428Z,14.40
2019-04-26T06:31:49.013Z,14.53
2019-04-26T06:34:29.281Z,13.72
2019-04-26T06:37:17.439Z,12.95
2019-04-26T06:39:51.786Z,13.88
2019-04-26T06:42:35.564Z,13.93
2019-04-26T06:45:30.842Z,13.90
2019-04-26T06:48:19.014Z,13.90
2019-04-26T06:51:06.867Z,13.48
2019-04-26T06:54:00.664Z,15.15
2019-04-26T06:57:10.594Z,14.25
2019-04-26T06:59:54.396Z,15.13
2019-04-26T07:02:38.313Z,14.75
2019-04-26T07:05:15.337Z,15.08
2019-04-26T07:07:54.876Z,15.18
2019-04-26T07:10:40.989Z,17.48
2019-04-26T07:13:39.145Z,15.32
2019-04-26T07:16:22.863Z,15.43
2019-04-26T07:19:13.335Z,15.30
2019-04-26T07:22:19.737Z,15.48
2019-04-26T07:24:59.989Z,15.10
2019-04-26T07:27:47.105Z,14.43
2019-04-26T07:30:24.641Z,13.80
2019-04-26T07:33:14.462Z,14.73
2019-04-26T07:35:49.004Z,15.05
2019-04-26T07:39:09.054Z,15.30
2019-04-26T07:41:40.350Z,13.20
2019-04-26T07:44:22.083Z,12.88
2019-04-26T07:47:15.438Z,13.68
2019-04-26T07:50:05.131Z,13.10
2019-04-26T07:52:48.510Z,11.45
2019-04-26T07:55:31.887Z,12.98
2019-04-26T07:58:36.906Z,13.65
2019-04-26T08:01:32.553Z,13.88
2019-04-26T08:04:05.829Z,10.98
2019-04-26T08:06:44.801Z,12.33
2019-04-26T08:09:26.518Z,12.35
2019-04-26T08:11:55.170Z,12.00
2019-04-26T08:14:40.420Z,12.95
2019-04-26T08:17:26.293Z,11.63
2019-04-26T08:20:20.488Z,11.78
2019-04-26T08:22:52.259Z,11.68
2019-04-26T08:25:24.327Z,12.43
2019-04-26T08:27:55.931Z,11.00
2019-04-26T08:30:26.784Z,10.63
2019-04-26T08:33:02.218Z,10.68
2019-04-26T08:35:32.163Z,11.93
2019-04-26T08:38:16.038Z,11.55
2019-04-26T08:43:44.645Z,10.32
2019-04-26T08:46:49.627Z,11.93
2019-04-26T08:49:25.098Z,10.63
2019-04-26T08:55:04.987Z,9.98
2019-04-26T08:57:41.388Z,10.65
2019-04-26T09:00:17.880Z,10.98
2019-04-26T09:03:10.957Z,11.40
2019-04-26T09:05:45.677Z,11.50
2019-04-26T09:08:28.412Z,13.48
2019-04-26T09:11:02.039Z,9.80
2019-04-26T09:13:36.103Z,10.80
2019-04-26T09:16:15.791Z,11.45
2019-04-26T09:18:52.482Z,11.75
2019-04-26T09:21:19.451Z,11.05
2019-04-26T09:24:02.500Z,11.00
2019-04-26T09:26:42.508Z,12.28
2019-04-26T09:29:30.617Z,12.37
2019-04-26T09:32:09.638Z,11.55
2019-04-26T09:34:43.135Z,12.15
2019-04-26T09:37:18.996Z,11.22
2019-04-26T09:39:50.386Z,11.83
2019-04-26T09:42:45.833Z,11.90
2019-04-26T09:45:39.272Z,13.30
2019-04-26T09:51:16.841Z,12.13
2019-04-26T09:53:53.304Z,11.63
2019-04-26T09:56:24.082Z,10.68
2019-04-26T10:02:12.052Z,10.95
2019-04-26T10:04:52.822Z,11.50
2019-04-26T10:07:26.237Z,11.65
2019-04-26T10:10:00.913Z,11.15
2019-04-26T10:12:32.192Z,11.48
2019-04-26T10:15:10.776Z,10.55
2019-04-26T10:17:50.201Z,11.10
2019-04-26T10:20:35.399Z,10.58
2019-04-26T10:32:02.667Z,10.90
2019-04-26T10:34:47.494Z,10.53
2019-04-26T10:37:38.746Z,10.50
2019-04-26T10:39:56.621Z,9.65
2019-04-26T10:42:25.267Z,10.58
2019-04-26T10:44:53.929Z,9.88
2019-04-26T10:47:23.466Z,10.88
2019-04-26T10:49:57.868Z,9.53
2019-04-26T10:52:53.407Z,10.53
2019-04-26T10:55:38.942Z,10.15
2019-04-26T10:58:12.092Z,11.75
2019-04-26T11:00:54.133Z,10.75
2019-04-26T11:03:34.993Z,10.30
2019-04-26T11:06:05.022Z,11.43
2019-04-26T11:08:41.343Z,10.75
2019-04-26T11:11:09.855Z,10.65
2019-04-26T11:13:38.615Z,11.22
2019-04-26T11:16:08.945Z,9.98
2019-04-26T11:18:40.492Z,10.20
2019-04-26T11:21:09.181Z,11.08
2019-04-26T11:23:41.194Z,10.55
2019-04-26T11:29:31.451Z,10.82
2019-04-26T11:35:34.844Z,11.43
2019-04-26T11:41:40.333Z,9.28
2019-04-26T11:50:17.770Z,9.90
2019-04-26T12:02:03.208Z,8.30
2019-04-26T12:04:36.411Z,8.33
2019-04-26T12:07:21.622Z,8.03
2019-04-26T12:13:15.324Z,7.65
2019-04-26T12:18:51.166Z,8.63
2019-04-26T12:21:34.156Z,9.50
2019-04-26T12:24:03.594Z,8.43
2019-04-26T12:26:42.353Z,8.65
2019-04-26T12:29:05.865Z,7.55
2019-04-26T12:31:36.675Z,8.40
2019-04-26T12:34:07.283Z,7.87
2019-04-26T12:36:36.007Z,7.08
2019-04-26T12:39:10.083Z,8.43
2019-04-26T12:41:45.019Z,9.03
2019-04-26T12:44:25.930Z,8.50
2019-04-26T12:47:05.213Z,8.90
2019-04-26T12:49:42.942Z,7.92
2019-04-26T12:52:13.290Z,7.30
2019-04-26T12:54:44.462Z,8.15
2019-04-26T12:57:16.096Z,7.58
2019-04-26T12:59:44.652Z,7.47
2019-04-26T13:02:16.732Z,8.60
2019-04-26T13:05:05.484Z,7.85
2019-04-26T13:07:34.246Z,8.05
2019-04-26T13:10:21.734Z,6.75
2019-04-26T13:12:55.266Z,7.75
2019-04-26T13:16:02.688Z,7.53
2019-04-26T13:18:34.238Z,7.62
2019-04-26T13:21:05.913Z,7.22
2019-04-26T13:23:37.756Z,6.92
2019-04-26T13:26:08.337Z,7.97
2019-04-26T13:28:39.123Z,7.92
2019-04-26T13:31:07.544Z,8.30
2019-04-26T13:33:36.239Z,7.50
2019-04-26T13:36:05.345Z,8.20
2019-04-26T13:38:35.207Z,8.10
2019-04-26T13:41:12.217Z,7.20
2019-04-26T13:43:49.179Z,8.20
2019-04-26T13:46:23.334Z,8.40
2019-04-26T13:49:05.892Z,7.97
2019-04-26T13:51:43.347Z,7.45
2019-04-26T13:54:16.663Z,7.33
2019-04-26T13:56:45.925Z,7.30
2019-04-26T13:59:17.504Z,8.20
2019-04-26T14:01:46.459Z,7.85
2019-04-26T14:04:31.456Z,7.35
2019-04-26T14:07:00.394Z,8.05
2019-04-26T14:09:29.118Z,8.25
2019-04-26T14:12:17.828Z,8.35
2019-04-26T14:14:38.997Z,8.70
2019-04-26T14:17:08.434Z,9.30
2019-04-26T14:19:37.204Z,8.25
2019-04-26T14:22:09.435Z,8.23
2019-04-26T14:24:39.782Z,8.20
2019-04-26T14:27:23.693Z,8.78
2019-04-26T14:29:54.928Z,8.95
2019-04-26T14:32:24.321Z,8.25
2019-04-26T14:34:53.453Z,9.43
2019-04-26T14:37:23.850Z,9.93
2019-04-26T14:39:59.217Z,8.40
2019-04-26T14:42:42.209Z,8.63
2019-04-26T14:45:23.247Z,9.20
2019-04-26T14:47:47.820Z,9.70
2019-04-26T14:50:16.820Z,8.95
2019-04-26T14:52:45.554Z,8.60
2019-04-26T14:55:16.673Z,8.30
2019-04-26T14:57:51.320Z,8.85
2019-04-26T15:00:21.172Z,9.30
2019-04-26T15:02:56.155Z,9.05
2019-04-26T15:05:30.653Z,8.60
2019-04-26T15:08:03.878Z,8.88
2019-04-26T15:10:44.388Z,10.08
2019-04-26T15:13:17.340Z,8.68
2019-04-26T15:15:39.003Z,9.88
2019-04-26T15:18:07.780Z,8.50
2019-04-26T15:20:36.525Z,9.13
2019-04-26T15:23:05.195Z,10.28
2019-04-26T15:25:36.771Z,9.40
2019-04-26T15:28:11.144Z,9.08
2019-04-26T15:30:43.410Z,9.78
2019-04-26T15:33:12.708Z,8.25
2019-04-26T15:35:46.269Z,9.48
2019-04-26T15:38:15.146Z,7.78
2019-04-26T15:41:05.555Z,7.87
2019-04-26T15:43:46.839Z,8.25
2019-04-26T15:46:29.509Z,8.08
2019-04-26T15:49:05.066Z,8.20
2019-04-26T15:51:35.883Z,8.78
2019-04-26T15:54:07.800Z,8.63
2019-04-26T15:56:36.529Z,9.28
2019-04-26T15:59:05.452Z,9.30
2019-04-26T16:01:34.122Z,9.73
2019-04-26T16:04:06.318Z,9.55
2019-04-26T16:06:33.200Z,9.00
2019-04-26T16:09:02.384Z,9.60
2019-04-26T16:11:31.080Z,9.75
2019-04-26T16:13:59.861Z,8.98
2019-04-26T16:16:30.221Z,10.25
2019-04-26T16:18:58.833Z,10.88
2019-04-26T16:21:27.661Z,10.32
2019-04-26T16:23:56.572Z,10.60
2019-04-26T16:26:25.287Z,10.48
2019-04-26T16:29:04.380Z,8.95
2019-04-26T16:31:37.465Z,9.80
2019-04-26T16:34:11.786Z,9.70
2019-04-26T16:39:13.156Z,10.68
2019-04-26T16:41:42.204Z,10.90
2019-04-26T16:44:12.880Z,10.75
2019-04-26T16:46:43.478Z,11.35
2019-04-26T16:49:14.101Z,10.70
2019-04-26T16:51:43.641Z,9.85
2019-04-26T16:54:21.053Z,10.50
2019-04-26T16:56:44.582Z,10.03
2019-04-26T16:59:14.359Z,9.93
2019-04-26T17:00:30.713Z,10.10
2019-04-26T17:01:47.329Z,9.80
2019-04-26T17:04:14.329Z,11.35
2019-04-26T17:06:46.321Z,9.50
2019-04-26T17:09:19.607Z,9.95
2019-04-26T17:11:48.286Z,9.08
2019-04-26T17:14:17.055Z,10.98
2019-04-26T17:16:45.857Z,10.48
2019-04-26T17:19:14.522Z,11.03
2019-04-26T17:22:01.047Z,10.82
2019-04-26T17:24:28.799Z,9.88
2019-04-26T17:27:01.562Z,9.28
2019-04-26T17:29:31.856Z,9.70
2019-04-26T17:32:09.206Z,9.85
2019-04-26T17:34:35.848Z,10.50
2019-04-26T17:37:11.712Z,9.48
2019-04-26T17:39:35.046Z,9.30
2019-04-26T17:42:03.689Z,10.03
2019-04-26T17:44:34.085Z,10.00
2019-04-26T17:47:03.065Z,9.90
2019-04-26T17:49:34.621Z,8.78
2019-04-26T17:52:02.168Z,9.85
2019-04-26T17:54:44.191Z,10.68
2019-04-26T17:57:04.479Z,10.03
2019-04-26T17:59:34.694Z,8.90
2019-04-26T18:02:02.098Z,9.10
2019-04-26T18:04:36.539Z,9.35
2019-04-26T18:07:05.515Z,10.18
2019-04-26T18:09:41.398Z,9.95
2019-04-26T18:12:03.578Z,10.38
2019-04-26T18:14:32.324Z,10.80
2019-04-26T18:17:04.398Z,10.20
2019-04-26T18:19:37.323Z,11.10
2019-04-26T18:22:14.683Z,10.08
2019-04-26T18:24:43.301Z,14.50
2019-04-26T18:27:14.794Z,21.07
2019-04-26T18:29:43.774Z,28.45
2019-04-26T18:32:12.988Z,15.28
2019-04-26T18:34:43.013Z,10.40
2019-04-26T18:37:13.252Z,9.40
2019-04-26T18:39:43.099Z,11.25
2019-04-26T18:42:11.970Z,9.43
2019-04-26T18:44:47.339Z,10.20
2019-04-26T18:47:20.942Z,9.25
2019-04-26T18:49:52.101Z,8.75
2019-04-26T18:52:23.298Z,9.70
2019-04-26T18:54:57.675Z,10.05
2019-04-26T18:57:28.412Z,10.43
2019-04-26T18:59:56.824Z,10.58
2019-04-26T19:02:27.144Z,9.83
2019-04-26T19:04:55.912Z,10.63
2019-04-26T19:07:32.029Z,9.05
2019-04-26T19:09:59.564Z,11.15
2019-04-26T19:12:27.102Z,10.72
2019-04-26T19:15:07.159Z,10.58
2019-04-26T19:17:43.428Z,9.93
2019-04-26T19:20:16.985Z,10.32
2019-04-26T19:22:54.597Z,9.58
2019-04-26T19:25:25.370Z,10.43
2019-04-26T19:27:58.711Z,10.23
2019-04-26T19:30:26.252Z,9.83
2019-04-26T19:32:54.985Z,11.18
2019-04-26T19:35:23.834Z,10.20
2019-04-26T19:37:52.540Z,9.95
2019-04-26T19:40:22.891Z,10.43
2019-04-26T19:42:57.518Z,10.48
2019-04-26T19:45:47.038Z,9.85
2019-04-26T19:48:20.653Z,11.15
2019-04-26T19:50:53.811Z,10.88
2019-04-26T19:53:26.849Z,10.35
2019-04-26T19:56:13.319Z,9.25
2019-04-26T19:58:45.870Z,9.15
2019-04-26T20:01:16.605Z,10.38
2019-04-26T20:03:47.336Z,9.55
2019-04-26T20:06:18.935Z,9.58
2019-04-26T20:08:47.937Z,9.78
2019-04-26T20:11:18.667Z,8.40
2019-04-26T20:13:46.942Z,9.73
2019-04-26T20:16:16.691Z,8.90
2019-04-26T20:18:45.381Z,9.15
2019-04-26T20:21:15.423Z,10.13
2019-04-26T20:23:47.361Z,10.43
2019-04-26T20:26:14.675Z,9.98
2019-04-26T20:28:43.340Z,10.15
2019-04-26T20:31:29.996Z,9.73
2019-04-26T20:33:58.716Z,8.73
2019-04-26T20:36:27.557Z,8.93
2019-04-26T20:38:56.254Z,8.98
2019-04-26T20:41:25.034Z,8.95
2019-04-26T20:44:05.060Z,9.83
2019-04-26T20:46:25.196Z,9.70
2019-04-26T20:48:53.853Z,8.75
2019-04-26T20:51:24.145Z,8.18
2019-04-26T20:53:53.335Z,8.30
2019-04-26T20:56:22.482Z,8.73
2019-04-26T20:58:52.299Z,8.48
2019-04-26T21:01:22.314Z,9.43
2019-04-26T21:03:51.800Z,8.45
2019-04-26T21:06:22.232Z,8.38
2019-04-26T21:08:52.212Z,8.68
2019-04-26T21:11:21.909Z,7.17
2019-04-26T21:13:51.961Z,8.10
2019-04-26T21:16:22.078Z,7.62
2019-04-26T21:18:52.415Z,7.92
2019-04-26T21:21:21.797Z,7.47
2019-04-26T21:23:52.116Z,8.48
2019-04-26T21:26:28.084Z,8.53
2019-04-26T21:29:20.482Z,8.75
2019-04-26T21:31:49.623Z,8.73
2019-04-26T21:34:19.996Z,8.33
2019-04-26T21:36:50.224Z,8.50
2019-04-26T21:39:23.305Z,8.23
2019-04-26T21:41:56.301Z,8.20
2019-04-26T21:44:25.184Z,8.73
2019-04-26T21:46:58.621Z,8.83
2019-04-26T21:49:24.473Z,7.87
2019-04-26T21:51:54.332Z,8.35
2019-04-26T21:54:24.929Z,7.80
2019-04-26T21:56:53.778Z,9.25
2019-04-26T21:59:24.292Z,7.60
2019-04-26T22:01:58.832Z,7.40
2019-04-26T22:04:24.494Z,8.08
2019-04-26T22:06:55.607Z,8.25
2019-04-26T22:09:33.321Z,7.53
2019-04-26T22:12:03.601Z,8.10
2019-04-26T22:14:34.158Z,8.70
2019-04-26T22:17:05.544Z,7.75
2019-04-26T22:19:45.258Z,7.42
2019-04-26T22:22:15.467Z,7.83
2019-04-26T22:24:45.948Z,8.10
2019-04-26T22:27:17.465Z,7.85
2019-04-26T22:29:47.676Z,8.53
2019-04-26T22:32:19.003Z,8.58
2019-04-26T22:34:46.423Z,8.63
2019-04-26T22:37:28.818Z,8.05
2019-04-26T22:39:45.510Z,7.42
2019-04-26T22:42:14.711Z,6.95
2019-04-26T22:44:45.031Z,7.45
2019-04-26T22:47:18.344Z,7.85
2019-04-26T22:49:47.043Z,8.23
2019-04-26T22:52:16.571Z,7.72
2019-04-26T22:54:46.748Z,7.47
2019-04-26T22:57:16.445Z,7.40
2019-04-26T22:59:49.745Z,8.13
2019-04-26T23:02:22.651Z,7.65
2019-04-26T23:04:47.863Z,8.05
2019-04-26T23:07:18.242Z,8.30
2019-04-26T23:09:51.800Z,7.42
2019-04-26T23:12:24.801Z,7.75
2019-04-26T23:14:55.182Z,7.03
2019-04-26T23:17:27.196Z,7.62
2019-04-26T23:20:03.796Z,7.33
2019-04-26T23:22:34.091Z,7.97
2019-04-26T23:25:03.523Z,7.15
2019-04-26T23:27:33.350Z,8.35
2019-04-26T23:30:03.864Z,7.90
2019-04-26T23:32:33.863Z,7.90
2019-04-26T23:35:05.956Z,8.40
2019-04-26T23:37:33.269Z,7.22
2019-04-26T23:40:03.831Z,7.70
2019-04-26T23:42:33.100Z,8.50
2019-04-26T23:45:03.167Z,7.62
2019-04-26T23:47:37.374Z,8.60
2019-04-26T23:50:03.615Z,8.35
2019-04-26T23:52:33.269Z,8.68
2019-04-26T23:55:05.613Z,8.83
2019-04-26T23:57:36.037Z,7.20
